Terminal Aerodrome Forecast
Issued by NWS Wakefield, VA

Home | Current Version | Previous Version | Text Only | Print | Product List | Glossary On
Versions: 1 2 3 4 5 6 7 8 9 10 11 12 13 14 15 16 17 18 19 20 21 22
000
FTUS41 KAKQ 231700
TAFSBY
TAF
KSBY 231737Z 2318/2418 22010KT P6SM SCT035
     FM240000 20005KT P6SM BKN250
     FM240300 23004KT P6SM SCT060 BKN120
     FM240800 27003KT 3SM BR BKN060 BKN120
      AMD NOT SKED=

USA.gov is the U.S. government's official web portal to all federal, state and local government web resources and services.